sensor_id;sensor_type;location;lat;lon;timestamp;pressure;altitude;pressure_sealevel;temperature;humidity
42067;BME280;27734;47.028;28.820;2024-01-25T00:02:00;100153.74;;;2.41;87.32
42067;BME280;27734;47.028;28.820;2024-01-25T00:04:33;100149.48;;;2.42;87.43
42067;BME280;27734;47.028;28.820;2024-01-25T00:07:04;100148.66;;;2.43;87.47
42067;BME280;27734;47.028;28.820;2024-01-25T00:09:36;100135.80;;;2.44;87.88
42067;BME280;27734;47.028;28.820;2024-01-25T00:12:08;100135.02;;;2.45;87.40
42067;BME280;27734;47.028;28.820;2024-01-25T00:14:39;100136.81;;;2.46;87.47
42067;BME280;27734;47.028;28.820;2024-01-25T00:17:10;100130.72;;;2.46;87.19
42067;BME280;27734;47.028;28.820;2024-01-25T00:19:41;100125.55;;;2.46;87.05
42067;BME280;27734;47.028;28.820;2024-01-25T00:22:13;100122.95;;;2.46;87.70
42067;BME280;27734;47.028;28.820;2024-01-25T00:24:44;100120.36;;;2.46;87.46
42067;BME280;27734;47.028;28.820;2024-01-25T00:27:15;100116.98;;;2.47;87.83
42067;BME280;27734;47.028;28.820;2024-01-25T00:29:46;100115.28;;;2.47;87.94
42067;BME280;27734;47.028;28.820;2024-01-25T00:32:18;100110.19;;;2.49;87.34
42067;BME280;27734;47.028;28.820;2024-01-25T00:34:50;100108.52;;;2.49;86.98
42067;BME280;27734;47.028;28.820;2024-01-25T00:37:22;100106.81;;;2.50;87.86
42067;BME280;27734;47.028;28.820;2024-01-25T00:39:54;100102.61;;;2.52;87.97
42067;BME280;27734;47.028;28.820;2024-01-25T00:42:26;100106.91;;;2.51;87.39
42067;BME280;27734;47.028;28.820;2024-01-25T00:44:59;100105.20;;;2.52;87.66
42067;BME280;27734;47.028;28.820;2024-01-25T00:47:31;100102.70;;;2.54;87.96
42067;BME280;27734;47.028;28.820;2024-01-25T00:50:04;100103.62;;;2.54;87.98
42067;BME280;27734;47.028;28.820;2024-01-25T00:52:36;100093.27;;;2.54;87.96
42067;BME280;27734;47.028;28.820;2024-01-25T00:55:10;100098.44;;;2.54;87.49
42067;BME280;27734;47.028;28.820;2024-01-25T00:57:42;100090.77;;;2.56;87.96
42067;BME280;27734;47.028;28.820;2024-01-25T01:00:15;100088.27;;;2.57;87.86
42067;BME280;27734;47.028;28.820;2024-01-25T01:02:47;100096.92;;;2.58;87.93
42067;BME280;27734;47.028;28.820;2024-01-25T01:05:19;100083.97;;;2.58;87.97
42067;BME280;27734;47.028;28.820;2024-01-25T01:07:52;100077.08;;;2.58;87.29
42067;BME280;27734;47.028;28.820;2024-01-25T01:10:23;100077.91;;;2.57;87.17
42067;BME280;27734;47.028;28.820;2024-01-25T01:12:54;100071.91;;;2.58;87.66
42067;BME280;27734;47.028;28.820;2024-01-25T01:15:26;100071.91;;;2.58;88.16
42067;BME280;27734;47.028;28.820;2024-01-25T01:17:57;100063.44;;;2.61;88.29
42067;BME280;27734;47.028;28.820;2024-01-25T01:20:28;100067.73;;;2.60;87.96
42067;BME280;27734;47.028;28.820;2024-01-25T01:22:59;100060.05;;;2.62;87.75
42067;BME280;27734;47.028;28.820;2024-01-25T01:25:30;100051.45;;;2.63;88.05
42067;BME280;27734;47.028;28.820;2024-01-25T01:28:01;100042.89;;;2.64;88.10
42067;BME280;27734;47.028;28.820;2024-01-25T01:30:32;100045.67;;;2.67;87.69
42067;BME280;27734;47.028;28.820;2024-01-25T01:33:04;100049.23;;;2.69;88.11
42067;BME280;27734;47.028;28.820;2024-01-25T01:35:35;100045.86;;;2.70;88.21
42067;BME280;27734;47.028;28.820;2024-01-25T01:38:06;100048.53;;;2.72;87.41
42067;BME280;27734;47.028;28.820;2024-01-25T01:40:38;100048.62;;;2.73;88.17
42067;BME280;27734;47.028;28.820;2024-01-25T01:43:19;100045.13;;;2.73;88.14
42067;BME280;27734;47.028;28.820;2024-01-25T01:45:50;100034.84;;;2.74;87.70
42067;BME280;27734;47.028;28.820;2024-01-25T01:48:21;100034.84;;;2.74;87.56
42067;BME280;27734;47.028;28.820;2024-01-25T01:50:52;100040.95;;;2.75;88.37
42067;BME280;27734;47.028;28.820;2024-01-25T01:53:24;100037.53;;;2.76;88.09
42067;BME280;27734;47.028;28.820;2024-01-25T01:55:55;100035.03;;;2.77;87.39
42067;BME280;27734;47.028;28.820;2024-01-25T01:58:28;100022.16;;;2.79;87.60
42067;BME280;27734;47.028;28.820;2024-01-25T02:01:03;100020.49;;;2.79;87.50
42067;BME280;27734;47.028;28.820;2024-01-25T02:03:35;100021.28;;;2.78;87.59
42067;BME280;27734;47.028;28.820;2024-01-25T02:06:07;100022.16;;;2.79;87.52
42067;BME280;27734;47.028;28.820;2024-01-25T02:08:38;100013.51;;;2.78;87.62
42067;BME280;27734;47.028;28.820;2024-01-25T02:11:12;100005.73;;;2.78;87.57
42067;BME280;27734;47.028;28.820;2024-01-25T02:13:42;99999.77;;;2.79;87.89
42067;BME280;27734;47.028;28.820;2024-01-25T02:16:13;100002.35;;;2.79;87.63
42067;BME280;27734;47.028;28.820;2024-01-25T02:18:45;100004.12;;;2.80;87.96
42067;BME280;27734;47.028;28.820;2024-01-25T02:21:18;100008.51;;;2.81;87.79
42067;BME280;27734;47.028;28.820;2024-01-25T02:23:49;100006.89;;;2.83;88.10
42067;BME280;27734;47.028;28.820;2024-01-25T02:26:20;100006.98;;;2.85;87.55
42067;BME280;27734;47.028;28.820;2024-01-25T02:28:52;100009.66;;;2.86;87.96
42067;BME280;27734;47.028;28.820;2024-01-25T02:31:23;100006.28;;;2.87;88.11
42067;BME280;27734;47.028;28.820;2024-01-25T02:33:54;100001.98;;;2.88;87.54
42067;BME280;27734;47.028;28.820;2024-01-25T02:36:26;100003.77;;;2.89;87.96
42067;BME280;27734;47.028;28.820;2024-01-25T02:38:57;99996.09;;;2.91;88.21
42067;BME280;27734;47.028;28.820;2024-01-25T02:41:30;99988.31;;;2.91;87.57
42067;BME280;27734;47.028;28.820;2024-01-25T02:44:02;99992.61;;;2.90;87.78
42067;BME280;27734;47.028;28.820;2024-01-25T02:46:33;99984.84;;;2.90;87.34
42067;BME280;27734;47.028;28.820;2024-01-25T02:49:04;99982.25;;;2.90;88.04
42067;BME280;27734;47.028;28.820;2024-01-25T02:51:35;99978.74;;;2.90;87.98
42067;BME280;27734;47.028;28.820;2024-01-25T02:54:06;99981.33;;;2.90;87.70
42067;BME280;27734;47.028;28.820;2024-01-25T02:56:38;99990.91;;;2.91;87.93
42067;BME280;27734;47.028;28.820;2024-01-25T02:59:09;99998.77;;;2.92;87.54
42067;BME280;27734;47.028;28.820;2024-01-25T03:01:41;100004.92;;;2.94;87.38
42067;BME280;27734;47.028;28.820;2024-01-25T03:04:12;100004.22;;;2.97;87.78
42067;BME280;27734;47.028;28.820;2024-01-25T03:06:44;100006.99;;;3.00;87.46
42067;BME280;27734;47.028;28.820;2024-01-25T03:09:15;99999.39;;;3.03;88.11
42067;BME280;27734;47.028;28.820;2024-01-25T03:11:46;99992.67;;;3.06;87.76
42067;BME280;27734;47.028;28.820;2024-01-25T03:14:17;99984.98;;;3.08;87.48
42067;BME280;27734;47.028;28.820;2024-01-25T03:16:48;99975.63;;;3.10;88.33
42067;BME280;27734;47.028;28.820;2024-01-25T03:19:20;99980.98;;;3.13;88.01
42067;BME280;27734;47.028;28.820;2024-01-25T03:21:51;99979.36;;;3.15;87.83
42067;BME280;27734;47.028;28.820;2024-01-25T03:24:23;99970.75;;;3.16;88.23
42067;BME280;27734;47.028;28.820;2024-01-25T03:26:54;99979.45;;;3.17;88.23
42067;BME280;27734;47.028;28.820;2024-01-25T03:29:25;99975.23;;;3.19;87.44
42067;BME280;27734;47.028;28.820;2024-01-25T03:31:56;99970.05;;;3.19;88.38
42067;BME280;27734;47.028;28.820;2024-01-25T03:34:28;99967.53;;;3.20;87.71
42067;BME280;27734;47.028;28.820;2024-01-25T03:36:59;99961.56;;;3.21;87.80
42067;BME280;27734;47.028;28.820;2024-01-25T03:39:30;99960.73;;;3.22;88.17
42067;BME280;27734;47.028;28.820;2024-01-25T03:42:01;99960.73;;;3.22;88.03
42067;BME280;27734;47.028;28.820;2024-01-25T03:44:32;99960.64;;;3.21;87.64
42067;BME280;27734;47.028;28.820;2024-01-25T03:47:03;99963.32;;;3.22;87.45
42067;BME280;27734;47.028;28.820;2024-01-25T03:49:35;99965.03;;;3.22;87.07
42067;BME280;27734;47.028;28.820;2024-01-25T03:52:07;99969.42;;;3.23;87.42
42067;BME280;27734;47.028;28.820;2024-01-25T03:54:38;99973.69;;;3.22;87.52
42067;BME280;27734;47.028;28.820;2024-01-25T03:57:09;99971.19;;;3.24;87.95
42067;BME280;27734;47.028;28.820;2024-01-25T03:59:40;99967.80;;;3.25;88.15
42067;BME280;27734;47.028;28.820;2024-01-25T04:02:12;99964.50;;;3.28;87.63
42067;BME280;27734;47.028;28.820;2024-01-25T04:04:43;99966.26;;;3.29;88.21
42067;BME280;27734;47.028;28.820;2024-01-25T04:07:14;99964.50;;;3.28;87.62
42067;BME280;27734;47.028;28.820;2024-01-25T04:09:45;99967.09;;;3.28;87.56
42067;BME280;27734;47.028;28.820;2024-01-25T04:12:16;99963.58;;;3.27;87.19
42067;BME280;27734;47.028;28.820;2024-01-25T04:14:48;99961.91;;;3.28;87.65
42067;BME280;27734;47.028;28.820;2024-01-25T04:17:19;99967.09;;;3.28;87.81
42067;BME280;27734;47.028;28.820;2024-01-25T04:19:50;99960.11;;;3.27;87.52
42067;BME280;27734;47.028;28.820;2024-01-25T04:22:21;99958.31;;;3.26;87.87
42067;BME280;27734;47.028;28.820;2024-01-25T04:24:53;99964.16;;;3.21;87.33
42067;BME280;27734;47.028;28.820;2024-01-25T04:27:24;99969.87;;;3.16;87.73
42067;BME280;27734;47.028;28.820;2024-01-25T04:29:55;99970.52;;;3.12;88.06
42067;BME280;27734;47.028;28.820;2024-01-25T04:32:27;99976.41;;;3.09;88.02
42067;BME280;27734;47.028;28.820;2024-01-25T04:34:58;99974.44;;;3.05;87.83
42067;BME280;27734;47.028;28.820;2024-01-25T04:37:29;99969.08;;;3.02;87.56
42067;BME280;27734;47.028;28.820;2024-01-25T04:40:00;99970.79;;;3.01;87.75
42067;BME280;27734;47.028;28.820;2024-01-25T04:42:32;99972.50;;;3.01;88.00
42067;BME280;27734;47.028;28.820;2024-01-25T04:45:05;99966.48;;;3.02;87.84
42067;BME280;27734;47.028;28.820;2024-01-25T04:47:38;99956.95;;;3.01;87.87
42067;BME280;27734;47.028;28.820;2024-01-25T04:50:10;99944.95;;;3.03;88.54
42067;BME280;27734;47.028;28.820;2024-01-25T04:52:42;99939.95;;;3.06;88.63
42067;BME280;27734;47.028;28.820;2024-01-25T04:55:13;99931.55;;;3.10;88.35
42067;BME280;27734;47.028;28.820;2024-01-25T04:57:44;99931.86;;;3.16;88.27
42067;BME280;27734;47.028;28.820;2024-01-25T05:00:17;99930.53;;;3.23;88.86
42067;BME280;27734;47.028;28.820;2024-01-25T05:02:48;99938.56;;;3.28;89.37
42067;BME280;27734;47.028;28.820;2024-01-25T05:05:19;99934.52;;;3.33;89.34
42067;BME280;27734;47.028;28.820;2024-01-25T05:07:51;99933.89;;;3.37;89.10
42067;BME280;27734;47.028;28.820;2024-01-25T05:10:22;99940.13;;;3.40;89.12
42067;BME280;27734;47.028;28.820;2024-01-25T05:12:55;99938.59;;;3.44;89.44
42067;BME280;27734;47.028;28.820;2024-01-25T05:15:26;99940.55;;;3.48;89.70
42067;BME280;27734;47.028;28.820;2024-01-25T05:17:57;99937.24;;;3.51;88.98
42067;BME280;27734;47.028;28.820;2024-01-25T05:20:28;99941.69;;;3.53;89.64
42067;BME280;27734;47.028;28.820;2024-01-25T05:23:03;99946.08;;;3.54;89.88
42067;BME280;27734;47.028;28.820;2024-01-25T05:25:34;99946.96;;;3.55;89.46
42067;BME280;27734;47.028;28.820;2024-01-25T05:28:06;99952.15;;;3.55;89.26
42067;BME280;27734;47.028;28.820;2024-01-25T05:30:38;99949.64;;;3.56;88.93
42067;BME280;27734;47.028;28.820;2024-01-25T05:33:09;99959.47;;;3.62;89.56
42067;BME280;27734;47.028;28.820;2024-01-25T05:35:40;99941.56;;;3.67;89.24
42067;BME280;27734;47.028;28.820;2024-01-25T05:38:11;99945.12;;;3.69;89.98
42067;BME280;27734;47.028;28.820;2024-01-25T05:40:42;99945.37;;;3.73;90.11
42067;BME280;27734;47.028;28.820;2024-01-25T05:43:13;99937.91;;;3.80;89.50
42067;BME280;27734;47.028;28.820;2024-01-25T05:45:44;99941.56;;;3.83;89.98
42067;BME280;27734;47.028;28.820;2024-01-25T05:48:17;99940.84;;;3.86;89.41
42067;BME280;27734;47.028;28.820;2024-01-25T05:50:49;99937.53;;;3.88;89.58
42067;BME280;27734;47.028;28.820;2024-01-25T05:53:22;99941.97;;;3.91;89.89
42067;BME280;27734;47.028;28.820;2024-01-25T05:55:53;99946.44;;;3.93;89.13
42067;BME280;27734;47.028;28.820;2024-01-25T05:58:25;99946.44;;;3.93;89.96
42067;BME280;27734;47.028;28.820;2024-01-25T06:00:56;99946.77;;;4.00;90.02
42067;BME280;27734;47.028;28.820;2024-01-25T06:03:27;99946.85;;;4.01;89.83
42067;BME280;27734;47.028;28.820;2024-01-25T06:05:59;99950.41;;;4.03;89.83
42067;BME280;27734;47.028;28.820;2024-01-25T06:08:30;99958.28;;;4.05;90.05
42067;BME280;27734;47.028;28.820;2024-01-25T06:11:01;99954.08;;;4.07;90.44
42067;BME280;27734;47.028;28.820;2024-01-25T06:13:32;99960.23;;;4.09;90.13
42067;BME280;27734;47.028;28.820;2024-01-25T06:16:04;99949.22;;;4.13;90.10
42067;BME280;27734;47.028;28.820;2024-01-25T06:18:36;99970.31;;;4.19;90.19
42067;BME280;27734;47.028;28.820;2024-01-25T06:21:07;99969.87;;;4.28;90.29
42067;BME280;27734;47.028;28.820;2024-01-25T06:23:39;99967.69;;;4.36;90.07
42067;BME280;27734;47.028;28.820;2024-01-25T06:26:10;99970.60;;;4.42;90.56
42067;BME280;27734;47.028;28.820;2024-01-25T06:28:41;99971.95;;;4.52;90.19
42067;BME280;27734;47.028;28.820;2024-01-25T06:31:12;99967.62;;;4.68;90.86
42067;BME280;27734;47.028;28.820;2024-01-25T06:33:46;99964.69;;;4.79;90.66
42067;BME280;27734;47.028;28.820;2024-01-25T06:36:20;99963.05;;;4.81;91.39
42067;BME280;27734;47.028;28.820;2024-01-25T06:38:51;99974.92;;;4.76;90.35
42067;BME280;27734;47.028;28.820;2024-01-25T06:41:24;99970.22;;;4.68;90.62
42067;BME280;27734;47.028;28.820;2024-01-25T06:43:58;99983.73;;;4.61;90.92
42067;BME280;27734;47.028;28.820;2024-01-25T06:46:29;99979.11;;;4.56;90.99
42067;BME280;27734;47.028;28.820;2024-01-25T06:49:02;99975.55;;;4.54;90.77
42067;BME280;27734;47.028;28.820;2024-01-25T06:51:33;99990.30;;;4.55;90.62
42067;BME280;27734;47.028;28.820;2024-01-25T06:54:04;99977.23;;;4.53;90.97
42067;BME280;27734;47.028;28.820;2024-01-25T06:56:36;99979.11;;;4.56;91.56
42067;BME280;27734;47.028;28.820;2024-01-25T06:59:10;99963.59;;;4.57;91.85
42067;BME280;27734;47.028;28.820;2024-01-25T07:01:41;99974.80;;;4.56;91.19
42067;BME280;27734;47.028;28.820;2024-01-25T07:04:12;99973.99;;;4.57;91.63
42067;BME280;27734;47.028;28.820;2024-01-25T07:06:44;99961.88;;;4.58;91.99
42067;BME280;27734;47.028;28.820;2024-01-25T07:09:15;99964.08;;;4.50;92.07
42067;BME280;27734;47.028;28.820;2024-01-25T07:11:47;99951.69;;;4.44;92.46
42067;BME280;27734;47.028;28.820;2024-01-25T07:14:18;99948.78;;;4.38;92.01
42067;BME280;27734;47.028;28.820;2024-01-25T07:16:50;99947.78;;;4.36;91.89
42067;BME280;27734;47.028;28.820;2024-01-25T07:19:21;99946.98;;;4.37;91.88
42067;BME280;27734;47.028;28.820;2024-01-25T07:21:54;99948.78;;;4.38;92.28
42067;BME280;27734;47.028;28.820;2024-01-25T07:24:27;99951.45;;;4.40;92.57
42067;BME280;27734;47.028;28.820;2024-01-25T07:27:00;99949.73;;;4.40;92.03
42067;BME280;27734;47.028;28.820;2024-01-25T07:29:34;99945.58;;;4.44;92.54
42067;BME280;27734;47.028;28.820;2024-01-25T07:32:06;99945.73;;;4.47;92.57
42067;BME280;27734;47.028;28.820;2024-01-25T07:34:37;99945.89;;;4.50;92.23
42067;BME280;27734;47.028;28.820;2024-01-25T07:37:08;99941.84;;;4.55;92.43
42067;BME280;27734;47.028;28.820;2024-01-25T07:39:43;99946.52;;;4.62;92.73
42067;BME280;27734;47.028;28.820;2024-01-25T07:42:17;99948.02;;;4.75;93.83
42067;BME280;27734;47.028;28.820;2024-01-25T07:44:48;99949.55;;;4.88;93.76
42067;BME280;27734;47.028;28.820;2024-01-25T07:47:21;99941.52;;;5.01;92.83
42067;BME280;27734;47.028;28.820;2024-01-25T07:49:54;99946.51;;;5.15;93.22
42067;BME280;27734;47.028;28.820;2024-01-25T07:52:26;99945.31;;;5.26;93.41
42067;BME280;27734;47.028;28.820;2024-01-25T07:55:10;99950.08;;;5.35;93.70
42067;BME280;27734;47.028;28.820;2024-01-25T07:57:56;99940.84;;;5.42;93.58
42067;BME280;27734;47.028;28.820;2024-01-25T08:00:33;99939.63;;;5.53;93.43
42067;BME280;27734;47.028;28.820;2024-01-25T08:03:06;99928.02;;;5.64;93.72
42067;BME280;27734;47.028;28.820;2024-01-25T08:05:40;99931.19;;;5.76;93.58
42067;BME280;27734;47.028;28.820;2024-01-25T08:08:13;99930.98;;;5.91;93.88
42067;BME280;27734;47.028;28.820;2024-01-25T08:10:44;99913.20;;;6.01;93.68
42067;BME280;27734;47.028;28.820;2024-01-25T08:13:16;99915.13;;;6.05;93.45
42067;BME280;27734;47.028;28.820;2024-01-25T08:15:48;99914.22;;;6.04;93.22
42067;BME280;27734;47.028;28.820;2024-01-25T08:18:20;99907.17;;;6.02;93.34
42067;BME280;27734;47.028;28.820;2024-01-25T08:20:53;99904.64;;;6.03;93.04
42067;BME280;27734;47.028;28.820;2024-01-25T08:23:27;99909.01;;;6.04;93.29
42067;BME280;27734;47.028;28.820;2024-01-25T08:26:05;99914.22;;;6.04;92.87
42067;BME280;27734;47.028;28.820;2024-01-25T08:29:01;99906.53;;;6.07;93.33
42067;BME280;27734;47.028;28.820;2024-01-25T08:31:49;99910.39;;;6.16;93.11
42067;BME280;27734;47.028;28.820;2024-01-25T08:34:23;99908.26;;;6.26;93.45
42067;BME280;27734;47.028;28.820;2024-01-25T08:36:55;99902.80;;;6.41;93.29
42067;BME280;27734;47.028;28.820;2024-01-25T08:39:27;99905.05;;;6.53;93.31
42067;BME280;27734;47.028;28.820;2024-01-25T08:41:58;99898.36;;;6.60;92.94
42067;BME280;27734;47.028;28.820;2024-01-25T08:44:30;99894.35;;;6.68;92.75
42067;BME280;27734;47.028;28.820;2024-01-25T08:47:02;99897.22;;;6.74;92.81
42067;BME280;27734;47.028;28.820;2024-01-25T08:49:37;99902.69;;;6.80;92.84
42067;BME280;27734;47.028;28.820;2024-01-25T08:52:09;99912.61;;;6.89;92.74
42067;BME280;27734;47.028;28.820;2024-01-25T08:54:42;99908.41;;;6.93;93.33
42067;BME280;27734;47.028;28.820;2024-01-25T08:57:15;99916.30;;;6.94;92.29
42067;BME280;27734;47.028;28.820;2024-01-25T08:59:48;99908.41;;;6.93;92.71
42067;BME280;27734;47.028;28.820;2024-01-25T09:02:19;99918.02;;;6.94;92.52
42067;BME280;27734;47.028;28.820;2024-01-25T09:04:52;99919.72;;;6.93;92.51
42067;BME280;27734;47.028;28.820;2024-01-25T09:07:23;99924.05;;;6.93;92.54
42067;BME280;27734;47.028;28.820;2024-01-25T09:09:55;99920.50;;;6.91;92.14
42067;BME280;27734;47.028;28.820;2024-01-25T09:12:27;99910.83;;;6.88;92.75
42067;BME280;27734;47.028;28.820;2024-01-25T09:14:58;99899.52;;;6.88;92.87
42067;BME280;27734;47.028;28.820;2024-01-25T09:17:29;99900.58;;;6.93;92.79
42067;BME280;27734;47.028;28.820;2024-01-25T09:20:08;99908.66;;;6.99;92.43
42067;BME280;27734;47.028;28.820;2024-01-25T09:22:40;99902.87;;;7.06;92.12
42067;BME280;27734;47.028;28.820;2024-01-25T09:25:22;99918.77;;;7.12;92.10
42067;BME280;27734;47.028;28.820;2024-01-25T09:27:53;99924.23;;;7.18;92.34
42067;BME280;27734;47.028;28.820;2024-01-25T09:30:26;99911.31;;;7.22;91.56
42067;BME280;27734;47.028;28.820;2024-01-25T09:32:59;99920.95;;;7.24;90.55
42067;BME280;27734;47.028;28.820;2024-01-25T09:35:32;99926.17;;;7.24;89.86
42067;BME280;27734;47.028;28.820;2024-01-25T09:38:03;99928.73;;;7.23;88.34
42067;BME280;27734;47.028;28.820;2024-01-25T09:40:37;99925.05;;;7.17;89.19
42067;BME280;27734;47.028;28.820;2024-01-25T09:43:08;99916.04;;;7.09;88.74
42067;BME280;27734;47.028;28.820;2024-01-25T09:45:40;99924.44;;;7.02;88.57
42067;BME280;27734;47.028;28.820;2024-01-25T09:48:16;99918.15;;;6.97;88.55
42067;BME280;27734;47.028;28.820;2024-01-25T09:50:48;99927.54;;;6.93;89.02
42067;BME280;27734;47.028;28.820;2024-01-25T09:53:23;99924.68;;;6.87;89.09
42067;BME280;27734;47.028;28.820;2024-01-25T09:56:00;99924.52;;;6.82;88.02
42067;BME280;27734;47.028;28.820;2024-01-25T09:58:41;99919.87;;;6.75;87.95
42067;BME280;27734;47.028;28.820;2024-01-25T10:01:22;99930.11;;;6.71;88.02
42067;BME280;27734;47.028;28.820;2024-01-25T10:03:56;99914.27;;;6.66;87.53
42067;BME280;27734;47.028;28.820;2024-01-25T10:06:29;99919.22;;;6.60;87.17
42067;BME280;27734;47.028;28.820;2024-01-25T10:09:04;99916.42;;;6.55;87.45
42067;BME280;27734;47.028;28.820;2024-01-25T10:11:43;99922.38;;;6.53;87.14
42067;BME280;27734;47.028;28.820;2024-01-25T10:14:18;99927.59;;;6.53;86.97
42067;BME280;27734;47.028;28.820;2024-01-25T10:16:49;99924.11;;;6.52;85.94
42067;BME280;27734;47.028;28.820;2024-01-25T10:19:23;99928.57;;;6.55;86.24
42067;BME280;27734;47.028;28.820;2024-01-25T10:21:57;99928.64;;;6.56;85.38
42067;BME280;27734;47.028;28.820;2024-01-25T10:24:29;99920.56;;;6.50;84.55
42067;BME280;27734;47.028;28.820;2024-01-25T10:27:02;99928.66;;;6.37;84.76
42067;BME280;27734;47.028;28.820;2024-01-25T10:29:35;99940.41;;;6.27;84.97
42067;BME280;27734;47.028;28.820;2024-01-25T10:32:07;99927.78;;;6.17;85.57
42067;BME280;27734;47.028;28.820;2024-01-25T10:34:39;99923.96;;;6.08;86.01
42067;BME280;27734;47.028;28.820;2024-01-25T10:37:12;99928.08;;;6.03;85.03
42067;BME280;27734;47.028;28.820;2024-01-25T10:39:43;99927.95;;;6.00;85.31
42067;BME280;27734;47.028;28.820;2024-01-25T10:42:15;99924.36;;;5.98;85.33
42067;BME280;27734;47.028;28.820;2024-01-25T10:44:47;99915.94;;;6.04;86.55
42067;BME280;27734;47.028;28.820;2024-01-25T10:47:18;99919.90;;;6.15;85.28
42067;BME280;27734;47.028;28.820;2024-01-25T10:49:51;99905.45;;;6.22;85.68
42067;BME280;27734;47.028;28.820;2024-01-25T10:52:24;99912.83;;;6.32;85.51
42067;BME280;27734;47.028;28.820;2024-01-25T10:54:55;99912.20;;;6.38;85.20
42067;BME280;27734;47.028;28.820;2024-01-25T10:57:37;99910.62;;;6.41;85.12
42067;BME280;27734;47.028;28.820;2024-01-25T11:00:11;99913.29;;;6.43;85.07
42067;BME280;27734;47.028;28.820;2024-01-25T11:02:45;99914.10;;;6.42;84.81
42067;BME280;27734;47.028;28.820;2024-01-25T11:05:20;99899.25;;;6.39;85.24
42067;BME280;27734;47.028;28.820;2024-01-25T11:07:51;99901.00;;;6.40;85.26
42067;BME280;27734;47.028;28.820;2024-01-25T11:10:26;99904.45;;;6.39;84.98
42067;BME280;27734;47.028;28.820;2024-01-25T11:13:01;99889.44;;;6.34;85.13
42067;BME280;27734;47.028;28.820;2024-01-25T11:15:36;99895.43;;;6.31;85.28
42067;BME280;27734;47.028;28.820;2024-01-25T11:18:09;99888.30;;;6.27;85.08
42067;BME280;27734;47.028;28.820;2024-01-25T11:20:41;99888.16;;;6.24;85.34
42067;BME280;27734;47.028;28.820;2024-01-25T11:23:16;99880.28;;;6.22;85.40
42067;BME280;27734;47.028;28.820;2024-01-25T11:25:48;99879.40;;;6.22;85.61
42067;BME280;27734;47.028;28.820;2024-01-25T11:31:08;99873.41;;;6.24;85.05
42067;BME280;27734;47.028;28.820;2024-01-25T11:33:40;99868.53;;;6.32;85.53
42067;BME280;27734;47.028;28.820;2024-01-25T11:36:12;99868.10;;;6.42;85.27
42067;BME280;27734;47.028;28.820;2024-01-25T11:38:43;99867.70;;;6.54;85.41
42067;BME280;27734;47.028;28.820;2024-01-25T11:41:15;99864.67;;;6.64;85.98
42067;BME280;27734;47.028;28.820;2024-01-25T11:43:47;99864.10;;;6.72;85.84
42067;BME280;27734;47.028;28.820;2024-01-25T11:46:19;99860.90;;;6.79;85.27
42067;BME280;27734;47.028;28.820;2024-01-25T11:48:50;99862.81;;;6.83;84.79
42067;BME280;27734;47.028;28.820;2024-01-25T11:51:22;99863.00;;;6.88;85.52
42067;BME280;27734;47.028;28.820;2024-01-25T11:53:53;99861.58;;;6.96;85.78
42067;BME280;27734;47.028;28.820;2024-01-25T11:56:27;99854.94;;;7.04;85.62
42067;BME280;27734;47.028;28.820;2024-01-25T11:59:00;99856.03;;;7.09;85.39
42067;BME280;27734;47.028;28.820;2024-01-25T12:01:32;99850.75;;;7.08;85.26
42067;BME280;27734;47.028;28.820;2024-01-25T12:04:05;99853.18;;;7.03;85.64
42067;BME280;27734;47.028;28.820;2024-01-25T12:06:38;99853.06;;;7.00;85.69
42067;BME280;27734;47.028;28.820;2024-01-25T12:09:12;99855.73;;;7.01;85.20
42067;BME280;27734;47.028;28.820;2024-01-25T12:11:50;99858.40;;;7.03;85.86
42067;BME280;27734;47.028;28.820;2024-01-25T12:14:22;99850.81;;;7.09;85.31
42067;BME280;27734;47.028;28.820;2024-01-25T12:17:07;99853.66;;;7.15;85.44
42067;BME280;27734;47.028;28.820;2024-01-25T12:19:39;99851.17;;;7.18;85.82
42067;BME280;27734;47.028;28.820;2024-01-25T12:22:10;99859.13;;;7.22;85.46
42067;BME280;27734;47.028;28.820;2024-01-25T12:24:44;99854.02;;;7.25;84.64
42067;BME280;27734;47.028;28.820;2024-01-25T12:27:18;99847.13;;;7.27;84.83
42067;BME280;27734;47.028;28.820;2024-01-25T12:29:55;99844.81;;;7.34;84.61
42067;BME280;27734;47.028;28.820;2024-01-25T12:32:27;99832.64;;;7.35;84.04
42067;BME280;27734;47.028;28.820;2024-01-25T12:35:00;99839.95;;;7.44;83.92
42067;BME280;27734;47.028;28.820;2024-01-25T12:37:31;99844.25;;;7.43;83.79
42067;BME280;27734;47.028;28.820;2024-01-25T12:40:03;99836.42;;;7.43;83.49
42067;BME280;27734;47.028;28.820;2024-01-25T12:42:34;99839.95;;;7.44;83.06
42067;BME280;27734;47.028;28.820;2024-01-25T12:45:06;99856.48;;;7.44;82.23
42067;BME280;27734;47.028;28.820;2024-01-25T12:47:46;99845.87;;;7.40;81.89
42067;BME280;27734;47.028;28.820;2024-01-25T12:50:18;99847.55;;;7.37;81.73
42067;BME280;27734;47.028;28.820;2024-01-25T12:52:49;99838.78;;;7.35;81.25
42067;BME280;27734;47.028;28.820;2024-01-25T12:55:21;99840.47;;;7.35;80.62
42067;BME280;27734;47.028;28.820;2024-01-25T12:57:54;99845.58;;;7.32;80.68
42067;BME280;27734;47.028;28.820;2024-01-25T13:00:27;99844.46;;;7.25;79.93
42067;BME280;27734;47.028;28.820;2024-01-25T13:03:02;99858.09;;;7.18;80.80
42067;BME280;27734;47.028;28.820;2024-01-25T13:05:34;99855.30;;;7.13;81.31
42067;BME280;27734;47.028;28.820;2024-01-25T13:08:09;99858.64;;;7.09;80.10
42067;BME280;27734;47.028;28.820;2024-01-25T13:10:41;99860.22;;;7.06;80.54
42067;BME280;27734;47.028;28.820;2024-01-25T13:13:13;99862.52;;;6.98;79.34
42067;BME280;27734;47.028;28.820;2024-01-25T13:15:47;99865.98;;;6.97;79.79
42067;BME280;27734;47.028;28.820;2024-01-25T13:18:19;99861.39;;;6.91;80.35
42067;BME280;27734;47.028;28.820;2024-01-25T13:20:50;99852.62;;;6.89;80.56
42067;BME280;27734;47.028;28.820;2024-01-25T13:23:22;99847.23;;;6.84;79.96
42067;BME280;27734;47.028;28.820;2024-01-25T13:25:53;99853.14;;;6.80;80.42
42067;BME280;27734;47.028;28.820;2024-01-25T13:28:27;99846.86;;;6.75;80.67